Warren, Arizona
Current Conditions -  °F | °C
As of 11:56 PM on Friday 19 Dec 2014 (Local Time) from KDUG Reporting Station
Clear Clear  
Wind Chill: 25°   Ceiling: Unl
Heat Index: 31°   Visibility: 10mi
Dew Point: 28°   Wind: 6mph
Humidity: 89%   Direction: 120°ESE
Pressure: 30.17"   Gusts: NA
Location:  31.4799°N, 109.96°W
Report Text: KDUG 200656Z AUTO 12005KT 10SM CLR M01/M02 A3017 RMK AO2 SLP205 T10061022 401391050
Loading
Personal Weather Stations






























Interactive Weather Map New forecast layout! Learn more

10-Day Weather Forecast

Advertisements
Track Severe Weather on mobile